sensor_id;sensor_type;location;lat;lon;timestamp;P1;durP1;ratioP1;P2;durP2;ratioP2
15516;SDS011;7860;52.030;5.572;2023-05-21T00:03:06;6.84;;;3.12;;
15516;SDS011;7860;52.030;5.572;2023-05-21T00:03:06;7.42;;;3.07;;
15516;SDS011;7860;52.030;5.572;2023-05-21T00:03:06;5.75;;;2.90;;
15516;SDS011;7860;52.030;5.572;2023-05-21T00:03:35;7.32;;;2.85;;
15516;SDS011;7860;52.030;5.572;2023-05-21T00:04:35;7.68;;;3.05;;
15516;SDS011;7860;52.030;5.572;2023-05-21T00:05:35;5.51;;;2.79;;
15516;SDS011;7860;52.030;5.572;2023-05-21T00:06:35;5.71;;;2.82;;
15516;SDS011;7860;52.030;5.572;2023-05-21T00:07:35;6.23;;;3.10;;
15516;SDS011;7860;52.030;5.572;2023-05-21T00:08:35;6.26;;;3.05;;
15516;SDS011;7860;52.030;5.572;2023-05-21T00:09:36;5.43;;;2.85;;
15516;SDS011;7860;52.030;5.572;2023-05-21T00:10:36;6.63;;;3.07;;
15516;SDS011;7860;52.030;5.572;2023-05-21T00:11:36;7.24;;;3.07;;
15516;SDS011;7860;52.030;5.572;2023-05-21T00:12:36;5.39;;;2.99;;
15516;SDS011;7860;52.030;5.572;2023-05-21T00:13:36;5.97;;;2.74;;
15516;SDS011;7860;52.030;5.572;2023-05-21T00:14:36;6.09;;;2.89;;
15516;SDS011;7860;52.030;5.572;2023-05-21T00:15:36;6.90;;;3.07;;
15516;SDS011;7860;52.030;5.572;2023-05-21T00:16:36;6.94;;;3.06;;
15516;SDS011;7860;52.030;5.572;2023-05-21T00:17:36;6.67;;;3.12;;
15516;SDS011;7860;52.030;5.572;2023-05-21T00:18:36;5.78;;;2.97;;
15516;SDS011;7860;52.030;5.572;2023-05-21T00:19:36;5.83;;;3.05;;
15516;SDS011;7860;52.030;5.572;2023-05-21T00:20:37;5.36;;;2.83;;
15516;SDS011;7860;52.030;5.572;2023-05-21T00:21:37;6.88;;;3.00;;
15516;SDS011;7860;52.030;5.572;2023-05-21T00:22:37;7.03;;;3.27;;
15516;SDS011;7860;52.030;5.572;2023-05-21T00:23:37;7.47;;;2.99;;
15516;SDS011;7860;52.030;5.572;2023-05-21T00:24:37;6.82;;;3.20;;
15516;SDS011;7860;52.030;5.572;2023-05-21T00:25:37;5.68;;;3.00;;
15516;SDS011;7860;52.030;5.572;2023-05-21T00:26:37;6.64;;;3.07;;
15516;SDS011;7860;52.030;5.572;2023-05-21T00:27:37;7.19;;;3.34;;
15516;SDS011;7860;52.030;5.572;2023-05-21T00:28:37;6.61;;;2.93;;
15516;SDS011;7860;52.030;5.572;2023-05-21T00:29:38;6.52;;;3.15;;
15516;SDS011;7860;52.030;5.572;2023-05-21T00:30:38;8.06;;;3.14;;
15516;SDS011;7860;52.030;5.572;2023-05-21T00:31:38;6.57;;;3.17;;
15516;SDS011;7860;52.030;5.572;2023-05-21T00:32:38;6.76;;;3.11;;
15516;SDS011;7860;52.030;5.572;2023-05-21T00:33:38;6.56;;;2.98;;
15516;SDS011;7860;52.030;5.572;2023-05-21T00:34:38;6.93;;;3.11;;
15516;SDS011;7860;52.030;5.572;2023-05-21T00:35:39;6.61;;;3.39;;
15516;SDS011;7860;52.030;5.572;2023-05-21T00:36:39;6.04;;;2.90;;
15516;SDS011;7860;52.030;5.572;2023-05-21T00:37:39;7.98;;;3.34;;
15516;SDS011;7860;52.030;5.572;2023-05-21T00:38:39;6.37;;;2.98;;
15516;SDS011;7860;52.030;5.572;2023-05-21T00:39:39;7.89;;;3.35;;
15516;SDS011;7860;52.030;5.572;2023-05-21T00:40:39;6.38;;;3.36;;
15516;SDS011;7860;52.030;5.572;2023-05-21T00:41:39;6.40;;;3.05;;
15516;SDS011;7860;52.030;5.572;2023-05-21T00:42:40;6.68;;;3.08;;
15516;SDS011;7860;52.030;5.572;2023-05-21T00:43:40;6.40;;;3.20;;
15516;SDS011;7860;52.030;5.572;2023-05-21T00:44:40;8.48;;;3.41;;
15516;SDS011;7860;52.030;5.572;2023-05-21T00:45:41;6.15;;;3.17;;
15516;SDS011;7860;52.030;5.572;2023-05-21T00:46:40;7.72;;;3.32;;
15516;SDS011;7860;52.030;5.572;2023-05-21T00:47:40;7.84;;;3.43;;
15516;SDS011;7860;52.030;5.572;2023-05-21T00:48:41;7.02;;;3.29;;
15516;SDS011;7860;52.030;5.572;2023-05-21T00:49:41;6.71;;;3.26;;
15516;SDS011;7860;52.030;5.572;2023-05-21T00:50:41;6.18;;;3.28;;
15516;SDS011;7860;52.030;5.572;2023-05-21T00:51:41;7.89;;;3.57;;
15516;SDS011;7860;52.030;5.572;2023-05-21T00:52:42;6.73;;;3.25;;
15516;SDS011;7860;52.030;5.572;2023-05-21T00:53:42;7.61;;;3.28;;
15516;SDS011;7860;52.030;5.572;2023-05-21T00:54:42;6.55;;;3.08;;
15516;SDS011;7860;52.030;5.572;2023-05-21T00:55:42;7.73;;;3.17;;
15516;SDS011;7860;52.030;5.572;2023-05-21T00:56:42;8.56;;;3.37;;
15516;SDS011;7860;52.030;5.572;2023-05-21T00:57:42;6.94;;;3.19;;
15516;SDS011;7860;52.030;5.572;2023-05-21T00:58:42;5.55;;;3.02;;
15516;SDS011;7860;52.030;5.572;2023-05-21T00:59:42;9.50;;;3.61;;
15516;SDS011;7860;52.030;5.572;2023-05-21T01:00:42;6.54;;;3.33;;
15516;SDS011;7860;52.030;5.572;2023-05-21T01:01:42;7.21;;;3.31;;
15516;SDS011;7860;52.030;5.572;2023-05-21T01:02:42;5.90;;;2.95;;
15516;SDS011;7860;52.030;5.572;2023-05-21T01:03:42;8.07;;;3.40;;
15516;SDS011;7860;52.030;5.572;2023-05-21T01:04:42;7.49;;;3.42;;
15516;SDS011;7860;52.030;5.572;2023-05-21T01:05:42;7.24;;;3.49;;
15516;SDS011;7860;52.030;5.572;2023-05-21T01:06:43;6.50;;;3.64;;
15516;SDS011;7860;52.030;5.572;2023-05-21T01:07:43;7.14;;;3.32;;
15516;SDS011;7860;52.030;5.572;2023-05-21T01:08:43;6.68;;;3.16;;
15516;SDS011;7860;52.030;5.572;2023-05-21T01:09:43;6.21;;;3.45;;
15516;SDS011;7860;52.030;5.572;2023-05-21T01:10:43;7.36;;;3.40;;
15516;SDS011;7860;52.030;5.572;2023-05-21T01:11:43;8.20;;;3.21;;
15516;SDS011;7860;52.030;5.572;2023-05-21T01:12:43;6.32;;;3.22;;
15516;SDS011;7860;52.030;5.572;2023-05-21T01:13:43;6.24;;;3.28;;
15516;SDS011;7860;52.030;5.572;2023-05-21T01:14:43;7.04;;;3.28;;
15516;SDS011;7860;52.030;5.572;2023-05-21T01:15:43;7.87;;;3.48;;
15516;SDS011;7860;52.030;5.572;2023-05-21T01:16:44;6.34;;;3.41;;
15516;SDS011;7860;52.030;5.572;2023-05-21T01:17:43;9.09;;;3.30;;
15516;SDS011;7860;52.030;5.572;2023-05-21T01:18:43;7.44;;;3.55;;
15516;SDS011;7860;52.030;5.572;2023-05-21T01:19:43;8.41;;;3.50;;
15516;SDS011;7860;52.030;5.572;2023-05-21T01:20:43;7.98;;;3.72;;
15516;SDS011;7860;52.030;5.572;2023-05-21T01:21:45;7.59;;;3.69;;
15516;SDS011;7860;52.030;5.572;2023-05-21T01:22:49;8.29;;;3.74;;
15516;SDS011;7860;52.030;5.572;2023-05-21T01:23:44;7.19;;;3.77;;
15516;SDS011;7860;52.030;5.572;2023-05-21T01:24:44;6.45;;;3.34;;
15516;SDS011;7860;52.030;5.572;2023-05-21T01:25:45;7.48;;;3.48;;
15516;SDS011;7860;52.030;5.572;2023-05-21T01:26:45;6.92;;;3.18;;
15516;SDS011;7860;52.030;5.572;2023-05-21T01:27:46;6.73;;;3.41;;
15516;SDS011;7860;52.030;5.572;2023-05-21T01:28:46;6.60;;;3.32;;
15516;SDS011;7860;52.030;5.572;2023-05-21T01:29:46;6.38;;;3.46;;
15516;SDS011;7860;52.030;5.572;2023-05-21T01:30:46;7.25;;;3.61;;
15516;SDS011;7860;52.030;5.572;2023-05-21T01:31:51;9.45;;;3.60;;
15516;SDS011;7860;52.030;5.572;2023-05-21T01:32:47;6.22;;;3.59;;
15516;SDS011;7860;52.030;5.572;2023-05-21T01:33:47;7.84;;;3.65;;
15516;SDS011;7860;52.030;5.572;2023-05-21T01:34:49;7.76;;;3.88;;
15516;SDS011;7860;52.030;5.572;2023-05-21T01:35:49;8.51;;;3.79;;
15516;SDS011;7860;52.030;5.572;2023-05-21T01:36:48;7.90;;;3.77;;
15516;SDS011;7860;52.030;5.572;2023-05-21T01:37:48;7.67;;;3.73;;
15516;SDS011;7860;52.030;5.572;2023-05-21T01:38:48;7.31;;;3.59;;
15516;SDS011;7860;52.030;5.572;2023-05-21T01:39:48;8.86;;;3.54;;
15516;SDS011;7860;52.030;5.572;2023-05-21T01:40:50;6.41;;;3.45;;
15516;SDS011;7860;52.030;5.572;2023-05-21T01:41:47;7.58;;;3.61;;
15516;SDS011;7860;52.030;5.572;2023-05-21T01:42:47;6.99;;;3.53;;
15516;SDS011;7860;52.030;5.572;2023-05-21T01:43:47;7.29;;;3.64;;
15516;SDS011;7860;52.030;5.572;2023-05-21T01:44:48;7.84;;;3.66;;
15516;SDS011;7860;52.030;5.572;2023-05-21T01:45:48;7.33;;;3.76;;
15516;SDS011;7860;52.030;5.572;2023-05-21T01:46:48;6.94;;;3.50;;
15516;SDS011;7860;52.030;5.572;2023-05-21T01:47:48;7.95;;;3.80;;
15516;SDS011;7860;52.030;5.572;2023-05-21T01:48:48;6.93;;;3.61;;
15516;SDS011;7860;52.030;5.572;2023-05-21T01:49:48;7.55;;;3.77;;
15516;SDS011;7860;52.030;5.572;2023-05-21T01:50:48;6.51;;;3.80;;
15516;SDS011;7860;52.030;5.572;2023-05-21T01:51:48;7.29;;;3.80;;
15516;SDS011;7860;52.030;5.572;2023-05-21T01:52:48;8.56;;;3.85;;
15516;SDS011;7860;52.030;5.572;2023-05-21T01:53:48;7.82;;;3.80;;
15516;SDS011;7860;52.030;5.572;2023-05-21T01:54:48;9.52;;;3.94;;
15516;SDS011;7860;52.030;5.572;2023-05-21T01:55:48;7.83;;;3.77;;
15516;SDS011;7860;52.030;5.572;2023-05-21T01:56:48;8.12;;;3.77;;
15516;SDS011;7860;52.030;5.572;2023-05-21T01:57:48;7.66;;;3.82;;
15516;SDS011;7860;52.030;5.572;2023-05-21T01:58:48;8.51;;;3.97;;
15516;SDS011;7860;52.030;5.572;2023-05-21T01:59:48;9.98;;;3.93;;
15516;SDS011;7860;52.030;5.572;2023-05-21T02:00:48;8.05;;;3.71;;
15516;SDS011;7860;52.030;5.572;2023-05-21T02:01:48;7.41;;;3.99;;
15516;SDS011;7860;52.030;5.572;2023-05-21T02:02:49;7.83;;;3.99;;
15516;SDS011;7860;52.030;5.572;2023-05-21T02:03:48;7.29;;;3.91;;
15516;SDS011;7860;52.030;5.572;2023-05-21T02:04:48;7.03;;;3.81;;
15516;SDS011;7860;52.030;5.572;2023-05-21T02:05:49;7.11;;;3.77;;
15516;SDS011;7860;52.030;5.572;2023-05-21T02:06:49;7.51;;;3.94;;
15516;SDS011;7860;52.030;5.572;2023-05-21T02:07:50;7.95;;;3.93;;
15516;SDS011;7860;52.030;5.572;2023-05-21T02:08:50;8.34;;;4.12;;
15516;SDS011;7860;52.030;5.572;2023-05-21T02:09:50;8.27;;;4.17;;
15516;SDS011;7860;52.030;5.572;2023-05-21T02:10:50;8.45;;;3.82;;
15516;SDS011;7860;52.030;5.572;2023-05-21T02:11:50;8.95;;;4.00;;
15516;SDS011;7860;52.030;5.572;2023-05-21T02:12:50;7.12;;;3.90;;
15516;SDS011;7860;52.030;5.572;2023-05-21T02:13:51;7.52;;;3.91;;
15516;SDS011;7860;52.030;5.572;2023-05-21T02:14:51;8.14;;;4.01;;
15516;SDS011;7860;52.030;5.572;2023-05-21T02:15:51;7.76;;;3.86;;
15516;SDS011;7860;52.030;5.572;2023-05-21T02:16:51;9.22;;;4.38;;
15516;SDS011;7860;52.030;5.572;2023-05-21T02:17:51;6.97;;;3.64;;
15516;SDS011;7860;52.030;5.572;2023-05-21T02:18:51;8.12;;;4.14;;
15516;SDS011;7860;52.030;5.572;2023-05-21T02:19:51;8.47;;;4.08;;
15516;SDS011;7860;52.030;5.572;2023-05-21T02:20:51;7.86;;;3.92;;
15516;SDS011;7860;52.030;5.572;2023-05-21T02:21:51;7.53;;;3.65;;
15516;SDS011;7860;52.030;5.572;2023-05-21T02:22:51;6.77;;;3.73;;
15516;SDS011;7860;52.030;5.572;2023-05-21T02:23:51;9.31;;;4.33;;
15516;SDS011;7860;52.030;5.572;2023-05-21T02:24:51;8.32;;;4.24;;
15516;SDS011;7860;52.030;5.572;2023-05-21T02:25:51;7.87;;;3.73;;
15516;SDS011;7860;52.030;5.572;2023-05-21T02:26:52;7.38;;;3.98;;
15516;SDS011;7860;52.030;5.572;2023-05-21T02:27:52;7.00;;;4.01;;
15516;SDS011;7860;52.030;5.572;2023-05-21T02:28:52;7.31;;;3.81;;
15516;SDS011;7860;52.030;5.572;2023-05-21T02:29:52;7.63;;;3.66;;
15516;SDS011;7860;52.030;5.572;2023-05-21T02:30:52;8.55;;;4.14;;
15516;SDS011;7860;52.030;5.572;2023-05-21T02:31:52;7.99;;;3.80;;
15516;SDS011;7860;52.030;5.572;2023-05-21T02:32:52;9.45;;;4.42;;
15516;SDS011;7860;52.030;5.572;2023-05-21T02:33:52;8.00;;;4.26;;
15516;SDS011;7860;52.030;5.572;2023-05-21T02:34:52;8.84;;;4.19;;
15516;SDS011;7860;52.030;5.572;2023-05-21T02:35:52;7.04;;;3.71;;
15516;SDS011;7860;52.030;5.572;2023-05-21T02:36:52;10.07;;;4.28;;
15516;SDS011;7860;52.030;5.572;2023-05-21T02:37:52;8.12;;;4.10;;
15516;SDS011;7860;52.030;5.572;2023-05-21T02:38:52;8.81;;;4.63;;
15516;SDS011;7860;52.030;5.572;2023-05-21T02:39:52;7.91;;;4.29;;
15516;SDS011;7860;52.030;5.572;2023-05-21T02:40:52;7.73;;;4.08;;
15516;SDS011;7860;52.030;5.572;2023-05-21T02:41:52;8.73;;;4.34;;
15516;SDS011;7860;52.030;5.572;2023-05-21T02:42:52;7.89;;;4.10;;
15516;SDS011;7860;52.030;5.572;2023-05-21T02:43:52;9.56;;;4.43;;
15516;SDS011;7860;52.030;5.572;2023-05-21T02:44:52;8.00;;;4.38;;
15516;SDS011;7860;52.030;5.572;2023-05-21T02:45:52;7.86;;;4.28;;
15516;SDS011;7860;52.030;5.572;2023-05-21T02:46:52;7.71;;;4.34;;
15516;SDS011;7860;52.030;5.572;2023-05-21T02:47:53;8.59;;;4.55;;
15516;SDS011;7860;52.030;5.572;2023-05-21T02:48:53;8.51;;;4.07;;
15516;SDS011;7860;52.030;5.572;2023-05-21T02:49:53;7.27;;;4.30;;
15516;SDS011;7860;52.030;5.572;2023-05-21T02:50:53;9.52;;;4.25;;
15516;SDS011;7860;52.030;5.572;2023-05-21T02:51:53;7.87;;;4.34;;
15516;SDS011;7860;52.030;5.572;2023-05-21T02:52:53;7.41;;;4.22;;
15516;SDS011;7860;52.030;5.572;2023-05-21T02:53:53;8.10;;;4.13;;
15516;SDS011;7860;52.030;5.572;2023-05-21T02:54:53;9.00;;;4.29;;
15516;SDS011;7860;52.030;5.572;2023-05-21T02:55:53;7.90;;;4.42;;
15516;SDS011;7860;52.030;5.572;2023-05-21T02:56:53;8.00;;;4.53;;
15516;SDS011;7860;52.030;5.572;2023-05-21T02:57:53;10.04;;;4.38;;
15516;SDS011;7860;52.030;5.572;2023-05-21T02:58:53;7.54;;;4.39;;
15516;SDS011;7860;52.030;5.572;2023-05-21T02:59:53;8.07;;;4.32;;
15516;SDS011;7860;52.030;5.572;2023-05-21T03:00:53;8.90;;;4.62;;
15516;SDS011;7860;52.030;5.572;2023-05-21T03:01:53;8.69;;;4.28;;
15516;SDS011;7860;52.030;5.572;2023-05-21T03:02:53;7.57;;;4.28;;
15516;SDS011;7860;52.030;5.572;2023-05-21T03:03:53;8.25;;;4.38;;
15516;SDS011;7860;52.030;5.572;2023-05-21T03:04:53;8.82;;;4.46;;
15516;SDS011;7860;52.030;5.572;2023-05-21T03:05:53;8.28;;;4.55;;
15516;SDS011;7860;52.030;5.572;2023-05-21T03:06:53;8.33;;;4.38;;
15516;SDS011;7860;52.030;5.572;2023-05-21T03:07:53;9.10;;;4.61;;
15516;SDS011;7860;52.030;5.572;2023-05-21T03:08:53;9.02;;;4.44;;
15516;SDS011;7860;52.030;5.572;2023-05-21T03:09:54;7.44;;;4.21;;
15516;SDS011;7860;52.030;5.572;2023-05-21T03:10:54;7.96;;;4.28;;
15516;SDS011;7860;52.030;5.572;2023-05-21T03:11:54;9.00;;;4.40;;
15516;SDS011;7860;52.030;5.572;2023-05-21T03:12:54;9.54;;;4.45;;
15516;SDS011;7860;52.030;5.572;2023-05-21T03:13:54;8.46;;;4.38;;
15516;SDS011;7860;52.030;5.572;2023-05-21T03:14:54;8.25;;;4.51;;
15516;SDS011;7860;52.030;5.572;2023-05-21T03:15:54;8.17;;;4.74;;
15516;SDS011;7860;52.030;5.572;2023-05-21T03:16:54;9.50;;;4.57;;
15516;SDS011;7860;52.030;5.572;2023-05-21T03:17:54;8.55;;;4.58;;
15516;SDS011;7860;52.030;5.572;2023-05-21T03:18:54;7.66;;;4.28;;
15516;SDS011;7860;52.030;5.572;2023-05-21T03:19:54;8.84;;;4.53;;
15516;SDS011;7860;52.030;5.572;2023-05-21T03:20:54;7.20;;;4.28;;
15516;SDS011;7860;52.030;5.572;2023-05-21T03:21:54;7.49;;;4.06;;
15516;SDS011;7860;52.030;5.572;2023-05-21T03:22:54;8.79;;;4.41;;
15516;SDS011;7860;52.030;5.572;2023-05-21T03:23:54;7.92;;;4.05;;
15516;SDS011;7860;52.030;5.572;2023-05-21T03:24:54;7.87;;;4.37;;
15516;SDS011;7860;52.030;5.572;2023-05-21T03:25:54;7.57;;;4.50;;
15516;SDS011;7860;52.030;5.572;2023-05-21T03:26:54;7.56;;;4.47;;
15516;SDS011;7860;52.030;5.572;2023-05-21T03:27:54;8.29;;;4.82;;
15516;SDS011;7860;52.030;5.572;2023-05-21T03:28:55;8.42;;;4.27;;
15516;SDS011;7860;52.030;5.572;2023-05-21T03:29:55;7.96;;;4.74;;
15516;SDS011;7860;52.030;5.572;2023-05-21T03:30:55;7.74;;;4.22;;
15516;SDS011;7860;52.030;5.572;2023-05-21T03:31:55;8.45;;;4.55;;
15516;SDS011;7860;52.030;5.572;2023-05-21T03:32:55;9.82;;;4.70;;
15516;SDS011;7860;52.030;5.572;2023-05-21T03:33:55;8.39;;;4.46;;
15516;SDS011;7860;52.030;5.572;2023-05-21T03:34:55;9.37;;;4.73;;
15516;SDS011;7860;52.030;5.572;2023-05-21T03:35:55;7.89;;;4.68;;
15516;SDS011;7860;52.030;5.572;2023-05-21T03:36:55;7.88;;;4.16;;
15516;SDS011;7860;52.030;5.572;2023-05-21T03:37:55;9.22;;;4.71;;
15516;SDS011;7860;52.030;5.572;2023-05-21T03:38:55;8.24;;;4.21;;
15516;SDS011;7860;52.030;5.572;2023-05-21T03:39:55;8.20;;;4.72;;
15516;SDS011;7860;52.030;5.572;2023-05-21T03:40:55;9.71;;;4.72;;
15516;SDS011;7860;52.030;5.572;2023-05-21T03:41:55;8.48;;;4.86;;
15516;SDS011;7860;52.030;5.572;2023-05-21T03:42:55;8.94;;;4.76;;
15516;SDS011;7860;52.030;5.572;2023-05-21T03:43:55;7.29;;;4.53;;
15516;SDS011;7860;52.030;5.572;2023-05-21T03:44:55;8.58;;;4.78;;
15516;SDS011;7860;52.030;5.572;2023-05-21T03:45:55;7.84;;;4.33;;
15516;SDS011;7860;52.030;5.572;2023-05-21T03:46:55;7.85;;;4.49;;
15516;SDS011;7860;52.030;5.572;2023-05-21T03:47:55;7.68;;;4.64;;
15516;SDS011;7860;52.030;5.572;2023-05-21T03:48:55;8.43;;;4.72;;
15516;SDS011;7860;52.030;5.572;2023-05-21T03:49:55;9.69;;;4.65;;
15516;SDS011;7860;52.030;5.572;2023-05-21T03:50:55;8.51;;;4.66;;
15516;SDS011;7860;52.030;5.572;2023-05-21T03:51:56;7.62;;;4.59;;
15516;SDS011;7860;52.030;5.572;2023-05-21T03:52:56;9.38;;;4.70;;
15516;SDS011;7860;52.030;5.572;2023-05-21T03:53:56;9.16;;;4.71;;
15516;SDS011;7860;52.030;5.572;2023-05-21T03:54:56;9.77;;;4.92;;
15516;SDS011;7860;52.030;5.572;2023-05-21T03:55:56;9.52;;;4.46;;
15516;SDS011;7860;52.030;5.572;2023-05-21T03:56:56;8.18;;;4.71;;
15516;SDS011;7860;52.030;5.572;2023-05-21T03:57:56;9.24;;;4.86;;
15516;SDS011;7860;52.030;5.572;2023-05-21T03:58:56;8.33;;;4.67;;
15516;SDS011;7860;52.030;5.572;2023-05-21T03:59:56;8.30;;;4.74;;
15516;SDS011;7860;52.030;5.572;2023-05-21T04:00:56;7.89;;;4.70;;
15516;SDS011;7860;52.030;5.572;2023-05-21T04:01:56;11.14;;;4.94;;
15516;SDS011;7860;52.030;5.572;2023-05-21T04:02:56;10.20;;;4.83;;
15516;SDS011;7860;52.030;5.572;2023-05-21T04:03:56;8.45;;;4.48;;
15516;SDS011;7860;52.030;5.572;2023-05-21T04:04:56;9.71;;;4.89;;
15516;SDS011;7860;52.030;5.572;2023-05-21T04:05:56;8.81;;;5.10;;
15516;SDS011;7860;52.030;5.572;2023-05-21T04:06:56;9.77;;;5.05;;
15516;SDS011;7860;52.030;5.572;2023-05-21T04:07:56;8.12;;;4.84;;
15516;SDS011;7860;52.030;5.572;2023-05-21T04:08:56;8.68;;;4.78;;
15516;SDS011;7860;52.030;5.572;2023-05-21T04:09:56;9.03;;;4.93;;
15516;SDS011;7860;52.030;5.572;2023-05-21T04:10:57;10.08;;;4.92;;
15516;SDS011;7860;52.030;5.572;2023-05-21T04:11:57;8.75;;;4.67;;
15516;SDS011;7860;52.030;5.572;2023-05-21T04:12:57;10.04;;;4.84;;
15516;SDS011;7860;52.030;5.572;2023-05-21T04:13:57;9.46;;;4.93;;
15516;SDS011;7860;52.030;5.572;2023-05-21T04:14:57;8.50;;;4.92;;
15516;SDS011;7860;52.030;5.572;2023-05-21T04:15:57;9.96;;;4.79;;
15516;SDS011;7860;52.030;5.572;2023-05-21T04:16:57;8.72;;;4.74;;
15516;SDS011;7860;52.030;5.572;2023-05-21T04:17:57;8.18;;;4.80;;
15516;SDS011;7860;52.030;5.572;2023-05-21T04:18:57;7.93;;;4.65;;
15516;SDS011;7860;52.030;5.572;2023-05-21T04:19:57;10.31;;;5.36;;
15516;SDS011;7860;52.030;5.572;2023-05-21T04:20:57;8.69;;;4.86;;
15516;SDS011;7860;52.030;5.572;2023-05-21T04:21:57;9.01;;;4.70;;
15516;SDS011;7860;52.030;5.572;2023-05-21T04:22:57;7.93;;;4.85;;
15516;SDS011;7860;52.030;5.572;2023-05-21T04:23:57;8.26;;;4.60;;
15516;SDS011;7860;52.030;5.572;2023-05-21T04:24:57;10.49;;;4.61;;
15516;SDS011;7860;52.030;5.572;2023-05-21T04:25:57;10.86;;;4.90;;
15516;SDS011;7860;52.030;5.572;2023-05-21T04:26:57;9.07;;;4.71;;
15516;SDS011;7860;52.030;5.572;2023-05-21T04:27:57;9.44;;;5.04;;
15516;SDS011;7860;52.030;5.572;2023-05-21T04:28:57;8.69;;;4.86;;
15516;SDS011;7860;52.030;5.572;2023-05-21T04:29:57;10.18;;;4.81;;
15516;SDS011;7860;52.030;5.572;2023-05-21T04:30:57;10.61;;;5.09;;
15516;SDS011;7860;52.030;5.572;2023-05-21T04:31:58;9.48;;;4.82;;
15516;SDS011;7860;52.030;5.572;2023-05-21T04:32:58;10.05;;;4.93;;
15516;SDS011;7860;52.030;5.572;2023-05-21T04:33:58;9.54;;;5.09;;
15516;SDS011;7860;52.030;5.572;2023-05-21T04:34:58;8.57;;;5.00;;
15516;SDS011;7860;52.030;5.572;2023-05-21T04:35:58;8.64;;;5.00;;
15516;SDS011;7860;52.030;5.572;2023-05-21T04:36:58;9.07;;;4.54;;
15516;SDS011;7860;52.030;5.572;2023-05-21T04:37:58;8.68;;;4.71;;
15516;SDS011;7860;52.030;5.572;2023-05-21T04:38:58;9.72;;;5.05;;
15516;SDS011;7860;52.030;5.572;2023-05-21T04:39:58;9.18;;;4.94;;
15516;SDS011;7860;52.030;5.572;2023-05-21T04:40:58;9.03;;;5.24;;
15516;SDS011;7860;52.030;5.572;2023-05-21T04:41:58;8.43;;;4.96;;
15516;SDS011;7860;52.030;5.572;2023-05-21T04:42:58;9.19;;;4.79;;
15516;SDS011;7860;52.030;5.572;2023-05-21T04:43:58;9.55;;;5.03;;
15516;SDS011;7860;52.030;5.572;2023-05-21T04:44:58;10.37;;;4.96;;
15516;SDS011;7860;52.030;5.572;2023-05-21T04:45:58;8.75;;;4.98;;
15516;SDS011;7860;52.030;5.572;2023-05-21T04:46:58;9.28;;;4.89;;
15516;SDS011;7860;52.030;5.572;2023-05-21T04:47:58;8.02;;;4.58;;
15516;SDS011;7860;52.030;5.572;2023-05-21T04:48:58;8.24;;;4.89;;
15516;SDS011;7860;52.030;5.572;2023-05-21T04:49:58;8.60;;;5.09;;
15516;SDS011;7860;52.030;5.572;2023-05-21T04:50:59;7.26;;;4.50;;
15516;SDS011;7860;52.030;5.572;2023-05-21T04:51:59;8.50;;;4.92;;
15516;SDS011;7860;52.030;5.572;2023-05-21T04:52:59;9.43;;;4.99;;
15516;SDS011;7860;52.030;5.572;2023-05-21T04:53:59;9.73;;;5.12;;
15516;SDS011;7860;52.030;5.572;2023-05-21T04:54:59;9.25;;;5.16;;
15516;SDS011;7860;52.030;5.572;2023-05-21T04:55:59;8.43;;;5.01;;
15516;SDS011;7860;52.030;5.572;2023-05-21T04:56:59;9.07;;;5.07;;
15516;SDS011;7860;52.030;5.572;2023-05-21T04:57:59;9.65;;;5.23;;
15516;SDS011;7860;52.030;5.572;2023-05-21T04:58:59;8.78;;;4.70;;
15516;SDS011;7860;52.030;5.572;2023-05-21T04:59:59;10.20;;;5.04;;
15516;SDS011;7860;52.030;5.572;2023-05-21T05:00:59;9.73;;;4.85;;
15516;SDS011;7860;52.030;5.572;2023-05-21T05:01:59;8.49;;;4.57;;
15516;SDS011;7860;52.030;5.572;2023-05-21T05:02:59;10.23;;;5.24;;
15516;SDS011;7860;52.030;5.572;2023-05-21T05:03:59;9.40;;;5.16;;
15516;SDS011;7860;52.030;5.572;2023-05-21T05:04:59;9.63;;;5.05;;
15516;SDS011;7860;52.030;5.572;2023-05-21T05:05:59;9.69;;;5.33;;
15516;SDS011;7860;52.030;5.572;2023-05-21T05:06:59;8.83;;;4.78;;
15516;SDS011;7860;52.030;5.572;2023-05-21T05:07:59;10.82;;;5.57;;
15516;SDS011;7860;52.030;5.572;2023-05-21T05:08:59;9.46;;;5.11;;
15516;SDS011;7860;52.030;5.572;2023-05-21T05:09:59;8.84;;;5.01;;
15516;SDS011;7860;52.030;5.572;2023-05-21T05:11:00;9.46;;;5.16;;
15516;SDS011;7860;52.030;5.572;2023-05-21T05:12:00;11.70;;;5.09;;
15516;SDS011;7860;52.030;5.572;2023-05-21T05:13:00;9.65;;;4.86;;
15516;SDS011;7860;52.030;5.572;2023-05-21T05:14:00;9.40;;;5.19;;
15516;SDS011;7860;52.030;5.572;2023-05-21T05:15:00;9.25;;;5.10;;
15516;SDS011;7860;52.030;5.572;2023-05-21T05:16:00;10.00;;;4.68;;
15516;SDS011;7860;52.030;5.572;2023-05-21T05:17:00;10.01;;;5.16;;
15516;SDS011;7860;52.030;5.572;2023-05-21T05:18:00;9.12;;;5.02;;
15516;SDS011;7860;52.030;5.572;2023-05-21T05:19:00;8.27;;;4.79;;
15516;SDS011;7860;52.030;5.572;2023-05-21T05:20:00;8.34;;;5.33;;
15516;SDS011;7860;52.030;5.572;2023-05-21T05:21:00;9.79;;;5.54;;
15516;SDS011;7860;52.030;5.572;2023-05-21T05:22:00;8.83;;;5.16;;
15516;SDS011;7860;52.030;5.572;2023-05-21T05:23:00;9.04;;;4.65;;
15516;SDS011;7860;52.030;5.572;2023-05-21T05:24:00;10.74;;;4.90;;
15516;SDS011;7860;52.030;5.572;2023-05-21T05:25:00;8.97;;;4.88;;
15516;SDS011;7860;52.030;5.572;2023-05-21T05:26:00;9.37;;;5.06;;
15516;SDS011;7860;52.030;5.572;2023-05-21T05:27:00;8.86;;;5.32;;
15516;SDS011;7860;52.030;5.572;2023-05-21T05:28:00;10.32;;;5.14;;
15516;SDS011;7860;52.030;5.572;2023-05-21T05:29:01;10.10;;;5.09;;
15516;SDS011;7860;52.030;5.572;2023-05-21T05:30:01;9.94;;;4.91;;
15516;SDS011;7860;52.030;5.572;2023-05-21T05:31:01;9.30;;;5.05;;
15516;SDS011;7860;52.030;5.572;2023-05-21T05:32:01;10.38;;;5.00;;
15516;SDS011;7860;52.030;5.572;2023-05-21T05:33:01;9.33;;;5.20;;
15516;SDS011;7860;52.030;5.572;2023-05-21T05:34:01;10.13;;;4.97;;
15516;SDS011;7860;52.030;5.572;2023-05-21T05:35:01;9.72;;;5.13;;
15516;SDS011;7860;52.030;5.572;2023-05-21T05:36:01;8.84;;;4.70;;
15516;SDS011;7860;52.030;5.572;2023-05-21T05:37:01;11.86;;;5.09;;
15516;SDS011;7860;52.030;5.572;2023-05-21T05:38:01;9.85;;;5.30;;
15516;SDS011;7860;52.030;5.572;2023-05-21T05:39:01;10.36;;;5.03;;
15516;SDS011;7860;52.030;5.572;2023-05-21T05:40:01;9.77;;;5.05;;
15516;SDS011;7860;52.030;5.572;2023-05-21T05:41:01;8.80;;;5.03;;
15516;SDS011;7860;52.030;5.572;2023-05-21T05:42:02;8.72;;;5.24;;
15516;SDS011;7860;52.030;5.572;2023-05-21T05:43:01;8.35;;;4.71;;
15516;SDS011;7860;52.030;5.572;2023-05-21T05:44:01;8.81;;;5.06;;
15516;SDS011;7860;52.030;5.572;2023-05-21T05:45:02;9.85;;;5.27;;
15516;SDS011;7860;52.030;5.572;2023-05-21T05:46:01;8.59;;;4.87;;
15516;SDS011;7860;52.030;5.572;2023-05-21T05:47:02;8.16;;;4.96;;
15516;SDS011;7860;52.030;5.572;2023-05-21T05:48:02;9.12;;;5.26;;
15516;SDS011;7860;52.030;5.572;2023-05-21T05:49:02;8.01;;;5.00;;
15516;SDS011;7860;52.030;5.572;2023-05-21T05:50:02;10.30;;;5.27;;
15516;SDS011;7860;52.030;5.572;2023-05-21T05:51:02;8.53;;;5.08;;
15516;SDS011;7860;52.030;5.572;2023-05-21T05:52:02;8.75;;;5.54;;
15516;SDS011;7860;52.030;5.572;2023-05-21T05:53:02;9.55;;;5.10;;
15516;SDS011;7860;52.030;5.572;2023-05-21T05:54:02;9.44;;;5.18;;
15516;SDS011;7860;52.030;5.572;2023-05-21T05:55:02;10.59;;;4.95;;
15516;SDS011;7860;52.030;5.572;2023-05-21T05:56:02;8.74;;;5.12;;
15516;SDS011;7860;52.030;5.572;2023-05-21T05:57:02;8.74;;;4.89;;
15516;SDS011;7860;52.030;5.572;2023-05-21T05:58:02;9.48;;;5.25;;
15516;SDS011;7860;52.030;5.572;2023-05-21T05:59:02;10.66;;;5.39;;
15516;SDS011;7860;52.030;5.572;2023-05-21T06:00:02;8.64;;;4.92;;
15516;SDS011;7860;52.030;5.572;2023-05-21T06:01:02;9.21;;;5.14;;
15516;SDS011;7860;52.030;5.572;2023-05-21T06:02:02;9.38;;;5.00;;
15516;SDS011;7860;52.030;5.572;2023-05-21T06:03:03;9.59;;;5.18;;
15516;SDS011;7860;52.030;5.572;2023-05-21T06:04:03;9.22;;;5.11;;
15516;SDS011;7860;52.030;5.572;2023-05-21T06:05:03;8.87;;;5.39;;
15516;SDS011;7860;52.030;5.572;2023-05-21T06:06:03;9.83;;;5.25;;
15516;SDS011;7860;52.030;5.572;2023-05-21T06:07:03;9.31;;;5.27;;